Impacts TAF Board
For situational awareness. Not to be used for flight planning purposes.
IDs:

KPDT - Pendleton/E Oregon R, OR, US

Issued at 1120 UTC 15 Jul 2020
Updated at 1143 UTC 15 Jul 2020
Potential Impact None Slight Moderate High
Time1053Z 15/12Z 15/13Z 15/14Z 15/15Z 15/16Z 15/17Z 15/18Z 15/19Z 15/20Z 15/21Z 15/22Z 15/23Z 16/00Z>>
Type OBS PRVL PRVL PRVL PRVL PRVL PRVL PRVL PRVL PRVL PRVL PRVL PRVL PRVL
VIS 10 >6 >6 >6 >6 >6 >6 >6 >6 >6 >6 >6 >6 >6
CIG -- -- -- -- -- -- -- -- -- -- -- -- -- --
Cover CLR SKC SKC SKC SKC SKC SKC SKC SKC SKC SKC SKC SKC SKC
FltCat VFR VFR VFR VFR VFR VFR VFR VFR VFR VFR VFR VFR VFR VFR
WX -- -- -- -- -- -- -- -- -- -- -- -- -- --
WDir 120 130 130 130 130 130 290 290 290 290 290 290 290 290
WSpd 9 10 10 10 10 10 8 8 8 8 8 8 8 8
WGst -- -- -- -- -- -- -- -- -- -- -- -- -- --
Raw TAF
KPDT 151120Z 1512/1612 13010KT P6SM SKC
  FM151700 29008KT P6SM SKC
  FM160600 16006KT P6SM SKC


Raw METAR
KPDT 151053Z AUTO 12009KT 10SM CLR 15/03 A3004 RMK AO2 SLP156 T01500033
KPDT 150953Z AUTO 16009KT 10SM CLR 16/03 A3004 RMK AO2 SLP156 T01560033
KPDT 150853Z AUTO 15011KT 10SM CLR 16/03 A3003 RMK AO2 SLP153 T01610033 56002

METAR Board
Radar Display
Forecast Discussion
For situational awareness. Not to be used for flight planning purposes.